ANA786 RJFU-RJOO
Flight info
| Callsign | ANA786 |
|---|---|
| Flight time | 0h 50m |
| Altitude | 35000 |
| Route | OOITA Y23 SPIDE Y231 MIRIO Y401 KAINA Y753 IZUMI |
| Aircraft | B738/M-SDE2E3FGHIRWXY/LB1 |
Departure
| Time | 2026-04-25 17:46 |
|---|---|
| Airport | Nagasaki Airport (RJFU) |
Arrival
| Time | 2026-04-25 18:36 |
|---|---|
| Airport | Osaka Itami International Airport (RJOO) |
| Time | Latitude | Longitude | Altitude | Speed | Heading |
|---|---|---|---|---|---|
| 2026-04-25 17:30 | 32.91517 | 129.92035 | 15 ft | 0 kts | 48° |
| 2026-04-25 17:39 | 32.91515 | 129.92032 | 16 ft | 1 kts | 48° |
| 2026-04-25 17:39 | 32.91508 | 129.92024 | 16 ft | 1 kts | 48° |
| 2026-04-25 17:39 | 32.91502 | 129.92015 | 16 ft | 1 kts | 49° |
| 2026-04-25 17:39 | 32.91493 | 129.92002 | 15 ft | 2 kts | 49° |
| 2026-04-25 17:40 | 32.91482 | 129.91988 | 15 ft | 2 kts | 49° |
| 2026-04-25 17:40 | 32.91474 | 129.91977 | 15 ft | 0 kts | 49° |
| 2026-04-25 17:42 | 32.91474 | 129.91978 | 15 ft | 1 kts | 62° |
| 2026-04-25 17:42 | 32.91467 | 129.91984 | 16 ft | 3 kts | 152° |
| 2026-04-25 17:42 | 32.91405 | 129.92005 | 15 ft | 14 kts | 164° |
| 2026-04-25 17:42 | 32.91301 | 129.92048 | 12 ft | 16 kts | 146° |
| 2026-04-25 17:43 | 32.91204 | 129.92145 | 12 ft | 21 kts | 138° |
| 2026-04-25 17:43 | 32.91085 | 129.92273 | 9 ft | 24 kts | 139° |
| 2026-04-25 17:43 | 32.90964 | 129.92401 | 12 ft | 21 kts | 138° |
| 2026-04-25 17:43 | 32.90865 | 129.92505 | 12 ft | 16 kts | 140° |
| 2026-04-25 17:44 | 32.90778 | 129.92510 | 16 ft | 12 kts | 218° |
| 2026-04-25 17:44 | 32.90759 | 129.92486 | 14 ft | 0 kts | 227° |
| 2026-04-25 17:44 | 32.90743 | 129.92465 | 16 ft | 7 kts | 227° |
| 2026-04-25 17:45 | 32.90723 | 129.92379 | 15 ft | 15 kts | 298° |
| 2026-04-25 17:45 | 32.90774 | 129.92328 | 16 ft | 14 kts | 317° |
| 2026-04-25 17:45 | 32.91080 | 129.92001 | 14 ft | 95 kts | 318° |
| 2026-04-25 17:45 | 32.91752 | 129.91283 | 15 ft | 163 kts | 318° |
| 2026-04-25 17:46 | 32.92694 | 129.90261 | 468 ft | 187 kts | 318° |
| 2026-04-25 17:46 | 32.93638 | 129.89252 | 1582 ft | 180 kts | 319° |
| 2026-04-25 17:46 | 32.94611 | 129.88211 | 2265 ft | 204 kts | 319° |
| 2026-04-25 17:46 | 32.95736 | 129.87008 | 2500 ft | 231 kts | 319° |
| 2026-04-25 17:47 | 32.96991 | 129.85668 | 2682 ft | 254 kts | 319° |
| 2026-04-25 17:47 | 32.98343 | 129.84226 | 3163 ft | 266 kts | 318° |
| 2026-04-25 17:47 | 32.99738 | 129.82743 | 3864 ft | 271 kts | 319° |
| 2026-04-25 17:47 | 33.01387 | 129.81641 | 4532 ft | 276 kts | 346° |
| 2026-04-25 17:48 | 33.04982 | 129.82696 | 5924 ft | 278 kts | 44° |
| 2026-04-25 17:48 | 33.06326 | 129.84360 | 6628 ft | 279 kts | 49° |
| 2026-04-25 17:48 | 33.07618 | 129.86115 | 7276 ft | 284 kts | 50° |
| 2026-04-25 17:49 | 33.08925 | 129.87896 | 7922 ft | 288 kts | 50° |
| 2026-04-25 17:49 | 33.10268 | 129.89699 | 8601 ft | 292 kts | 49° |
| 2026-04-25 17:49 | 33.11631 | 129.91509 | 9261 ft | 295 kts | 49° |
| 2026-04-25 17:49 | 33.13015 | 129.93341 | 9909 ft | 299 kts | 49° |
| 2026-04-25 17:50 | 33.14305 | 129.95315 | 10356 ft | 308 kts | 65° |
| 2026-04-25 17:50 | 33.14852 | 129.97837 | 10505 ft | 323 kts | 93° |
| 2026-04-25 17:50 | 33.14331 | 130.00474 | 10659 ft | 336 kts | 120° |
| 2026-04-25 17:50 | 33.13040 | 130.02864 | 10824 ft | 352 kts | 127° |
| 2026-04-25 17:51 | 33.11594 | 130.05320 | 10983 ft | 369 kts | 127° |
| 2026-04-25 17:51 | 33.10115 | 130.07876 | 11338 ft | 379 kts | 127° |
| 2026-04-25 17:51 | 33.08629 | 130.10487 | 11887 ft | 382 kts | 127° |
| 2026-04-25 17:51 | 33.07138 | 130.13132 | 12435 ft | 386 kts | 127° |
| 2026-04-25 17:52 | 33.05632 | 130.15810 | 12945 ft | 391 kts | 127° |
| 2026-04-25 17:52 | 33.04628 | 130.17592 | 13286 ft | 393 kts | 127° |
| 2026-04-25 17:52 | 33.02590 | 130.21204 | 13957 ft | 399 kts | 127° |
| 2026-04-25 17:52 | 33.01032 | 130.23962 | 14409 ft | 402 kts | 127° |
| 2026-04-25 17:53 | 32.99471 | 130.26750 | 14872 ft | 407 kts | 124° |
| 2026-04-25 17:53 | 32.98400 | 130.29892 | 15290 ft | 418 kts | 104° |
| 2026-04-25 17:53 | 32.98249 | 130.33374 | 15767 ft | 426 kts | 84° |
| 2026-04-25 17:53 | 32.98825 | 130.36851 | 16253 ft | 429 kts | 78° |
| 2026-04-25 17:54 | 32.99490 | 130.40331 | 16670 ft | 434 kts | 78° |
| 2026-04-25 17:54 | 33.00163 | 130.43845 | 17101 ft | 437 kts | 78° |
| 2026-04-25 17:54 | 33.00827 | 130.47396 | 17556 ft | 440 kts | 78° |
| 2026-04-25 17:54 | 33.01478 | 130.50976 | 17993 ft | 443 kts | 78° |
| 2026-04-25 17:55 | 33.02120 | 130.54581 | 18408 ft | 447 kts | 79° |
| 2026-04-25 17:55 | 33.02762 | 130.58216 | 18788 ft | 450 kts | 79° |
| 2026-04-25 17:55 | 33.03408 | 130.61875 | 19153 ft | 453 kts | 79° |
| 2026-04-25 17:55 | 33.04058 | 130.65563 | 19510 ft | 456 kts | 79° |
| 2026-04-25 17:56 | 33.04710 | 130.69273 | 19875 ft | 460 kts | 79° |
| 2026-04-25 17:56 | 33.05366 | 130.73020 | 20248 ft | 463 kts | 79° |
| 2026-04-25 17:56 | 33.06024 | 130.76779 | 20611 ft | 466 kts | 79° |
| 2026-04-25 17:56 | 33.06687 | 130.80576 | 20962 ft | 469 kts | 79° |
| 2026-04-25 17:57 | 33.07353 | 130.84396 | 21309 ft | 472 kts | 79° |
| 2026-04-25 17:57 | 33.08021 | 130.88235 | 21669 ft | 474 kts | 79° |
| 2026-04-25 17:57 | 33.08692 | 130.92098 | 21942 ft | 478 kts | 80° |
| 2026-04-25 17:57 | 33.08911 | 130.93362 | 22026 ft | 480 kts | 80° |
| 2026-04-25 17:58 | 33.10039 | 130.99875 | 22560 ft | 484 kts | 80° |
| 2026-04-25 17:58 | 33.10728 | 131.03867 | 22902 ft | 487 kts | 80° |
| 2026-04-25 17:58 | 33.11402 | 131.07772 | 23188 ft | 490 kts | 80° |
| 2026-04-25 17:58 | 33.12098 | 131.11822 | 23487 ft | 493 kts | 80° |
| 2026-04-25 17:59 | 33.12779 | 131.15790 | 23751 ft | 496 kts | 80° |
| 2026-04-25 17:59 | 33.13472 | 131.19834 | 23953 ft | 499 kts | 80° |
| 2026-04-25 17:59 | 33.14167 | 131.23900 | 24145 ft | 503 kts | 80° |
| 2026-04-25 17:59 | 33.14869 | 131.28014 | 24327 ft | 507 kts | 80° |
| 2026-04-25 18:00 | 33.15572 | 131.32140 | 24506 ft | 511 kts | 80° |
| 2026-04-25 18:00 | 33.16282 | 131.36320 | 24691 ft | 514 kts | 80° |
| 2026-04-25 18:00 | 33.16992 | 131.40510 | 24878 ft | 517 kts | 80° |
| 2026-04-25 18:00 | 33.17705 | 131.44723 | 25081 ft | 520 kts | 81° |
| 2026-04-25 18:01 | 33.18422 | 131.48968 | 25222 ft | 524 kts | 81° |
| 2026-04-25 18:01 | 33.19143 | 131.53251 | 25371 ft | 528 kts | 81° |
| 2026-04-25 18:01 | 33.19866 | 131.57551 | 25559 ft | 530 kts | 81° |
| 2026-04-25 18:01 | 33.20594 | 131.61886 | 25744 ft | 533 kts | 81° |
| 2026-04-25 18:02 | 33.21323 | 131.66242 | 25915 ft | 536 kts | 81° |
| 2026-04-25 18:02 | 33.22083 | 131.70620 | 26082 ft | 540 kts | 77° |
| 2026-04-25 18:02 | 33.23253 | 131.74895 | 26220 ft | 544 kts | 69° |
| 2026-04-25 18:02 | 33.24689 | 131.79087 | 26417 ft | 546 kts | 67° |
| 2026-04-25 18:03 | 33.26208 | 131.83255 | 26572 ft | 549 kts | 66° |
| 2026-04-25 18:03 | 33.27742 | 131.87457 | 26704 ft | 552 kts | 66° |
| 2026-04-25 18:03 | 33.29245 | 131.91672 | 26869 ft | 554 kts | 67° |
| 2026-04-25 18:03 | 33.30728 | 131.95944 | 27116 ft | 555 kts | 68° |
| 2026-04-25 18:04 | 33.32163 | 132.00167 | 27338 ft | 555 kts | 68° |
| 2026-04-25 18:04 | 33.33605 | 132.04458 | 27544 ft | 557 kts | 68° |
| 2026-04-25 18:04 | 33.35066 | 132.08823 | 27724 ft | 559 kts | 68° |
| 2026-04-25 18:04 | 33.36493 | 132.13086 | 27917 ft | 561 kts | 68° |
| 2026-04-25 18:05 | 33.37947 | 132.17424 | 28133 ft | 562 kts | 68° |
| 2026-04-25 18:05 | 33.39400 | 132.21757 | 28350 ft | 563 kts | 68° |
| 2026-04-25 18:05 | 33.40863 | 132.26118 | 28558 ft | 565 kts | 68° |
| 2026-04-25 18:05 | 33.42328 | 132.30493 | 28780 ft | 566 kts | 68° |
| 2026-04-25 18:06 | 33.43795 | 132.34877 | 28975 ft | 567 kts | 68° |
| 2026-04-25 18:06 | 33.45264 | 132.39270 | 29155 ft | 569 kts | 68° |
| 2026-04-25 18:06 | 33.46734 | 132.43662 | 29380 ft | 570 kts | 68° |
| 2026-04-25 18:06 | 33.48216 | 132.48089 | 29665 ft | 570 kts | 68° |
| 2026-04-25 18:07 | 33.49696 | 132.52513 | 29879 ft | 572 kts | 68° |
| 2026-04-25 18:07 | 33.51175 | 132.56945 | 30082 ft | 574 kts | 68° |
| 2026-04-25 18:07 | 33.52655 | 132.61390 | 30242 ft | 576 kts | 68° |
| 2026-04-25 18:07 | 33.54138 | 132.65853 | 30450 ft | 576 kts | 68° |
| 2026-04-25 18:08 | 33.55620 | 132.70317 | 30698 ft | 576 kts | 69° |
| 2026-04-25 18:08 | 33.57098 | 132.74774 | 30918 ft | 576 kts | 69° |
| 2026-04-25 18:08 | 33.58575 | 132.79235 | 31113 ft | 576 kts | 69° |
| 2026-04-25 18:08 | 33.60053 | 132.83707 | 31300 ft | 577 kts | 69° |
| 2026-04-25 18:09 | 33.61516 | 132.88138 | 31497 ft | 578 kts | 69° |
| 2026-04-25 18:09 | 33.62992 | 132.92614 | 31733 ft | 577 kts | 69° |
| 2026-04-25 18:09 | 33.64370 | 132.97128 | 31972 ft | 576 kts | 75° |
| 2026-04-25 18:10 | 33.65938 | 133.06470 | 32104 ft | 569 kts | 86° |
| 2026-04-25 18:10 | 33.67028 | 133.15886 | 32132 ft | 571 kts | 86° |
| 2026-04-25 18:11 | 33.68194 | 133.25332 | 32113 ft | 573 kts | 85° |
| 2026-04-25 18:11 | 33.69436 | 133.34769 | 32116 ft | 571 kts | 85° |
| 2026-04-25 18:12 | 33.70661 | 133.44124 | 32123 ft | 570 kts | 85° |
| 2026-04-25 18:12 | 33.71874 | 133.53527 | 32129 ft | 569 kts | 85° |
| 2026-04-25 18:13 | 33.73092 | 133.62887 | 32016 ft | 565 kts | 85° |
| 2026-04-25 18:13 | 33.74299 | 133.72194 | 32125 ft | 564 kts | 85° |
| 2026-04-25 18:14 | 33.75503 | 133.81565 | 31623 ft | 571 kts | 85° |
| 2026-04-25 18:14 | 33.76096 | 133.86191 | 31328 ft | 562 kts | 85° |
| 2026-04-25 18:14 | 33.76702 | 133.90952 | 30432 ft | 572 kts | 84° |
| 2026-04-25 18:14 | 33.77295 | 133.95626 | 29611 ft | 573 kts | 84° |
| 2026-04-25 18:15 | 33.77894 | 134.00348 | 28879 ft | 573 kts | 84° |
| 2026-04-25 18:15 | 33.78493 | 134.05086 | 28145 ft | 570 kts | 84° |
| 2026-04-25 18:15 | 33.79090 | 134.09795 | 27274 ft | 569 kts | 84° |
| 2026-04-25 18:15 | 33.79678 | 134.14488 | 26452 ft | 567 kts | 84° |
| 2026-04-25 18:16 | 33.80259 | 134.19157 | 25797 ft | 560 kts | 83° |
| 2026-04-25 18:16 | 33.81057 | 134.23701 | 25261 ft | 554 kts | 75° |
| 2026-04-25 18:16 | 33.83936 | 134.32073 | 24455 ft | 535 kts | 62° |
| 2026-04-25 18:17 | 33.85649 | 134.36020 | 23872 ft | 530 kts | 62° |
| 2026-04-25 18:17 | 33.87342 | 134.39929 | 23337 ft | 522 kts | 63° |
| 2026-04-25 18:17 | 33.88987 | 134.43818 | 22639 ft | 518 kts | 63° |
| 2026-04-25 18:17 | 33.90582 | 134.47670 | 21958 ft | 512 kts | 63° |
| 2026-04-25 18:18 | 33.92140 | 134.51463 | 21414 ft | 498 kts | 63° |
| 2026-04-25 18:18 | 33.93654 | 134.55133 | 21058 ft | 482 kts | 63° |
| 2026-04-25 18:18 | 33.95144 | 134.58720 | 20475 ft | 473 kts | 63° |
| 2026-04-25 18:18 | 33.96603 | 134.62225 | 19897 ft | 464 kts | 62° |
| 2026-04-25 18:19 | 33.98038 | 134.65677 | 19328 ft | 456 kts | 62° |
| 2026-04-25 18:19 | 33.99441 | 134.69062 | 18766 ft | 448 kts | 62° |
| 2026-04-25 18:19 | 34.00817 | 134.72393 | 18235 ft | 440 kts | 63° |
| 2026-04-25 18:19 | 34.02137 | 134.75626 | 17789 ft | 431 kts | 63° |
| 2026-04-25 18:20 | 34.03458 | 134.78876 | 17218 ft | 423 kts | 63° |
| 2026-04-25 18:20 | 34.04731 | 134.82014 | 16693 ft | 423 kts | 63° |
| 2026-04-25 18:20 | 34.06002 | 134.85147 | 16172 ft | 436 kts | 63° |
| 2026-04-25 18:20 | 34.07352 | 134.88476 | 15584 ft | 434 kts | 63° |
| 2026-04-25 18:21 | 34.08664 | 134.91718 | 15009 ft | 426 kts | 63° |
| 2026-04-25 18:21 | 34.09951 | 134.94897 | 14456 ft | 417 kts | 63° |
| 2026-04-25 18:21 | 34.11212 | 134.98014 | 13915 ft | 409 kts | 63° |
| 2026-04-25 18:21 | 34.12447 | 135.01069 | 13320 ft | 402 kts | 63° |
| 2026-04-25 18:22 | 34.13663 | 135.04082 | 12766 ft | 398 kts | 63° |
| 2026-04-25 18:22 | 34.14069 | 135.05086 | 12585 ft | 397 kts | 63° |
| 2026-04-25 18:22 | 34.16076 | 135.10061 | 11702 ft | 394 kts | 64° |
| 2026-04-25 18:22 | 34.17261 | 135.13004 | 11476 ft | 384 kts | 64° |
| 2026-04-25 18:23 | 34.18413 | 135.15867 | 11306 ft | 373 kts | 64° |
| 2026-04-25 18:23 | 34.19521 | 135.18621 | 11152 ft | 358 kts | 64° |
| 2026-04-25 18:23 | 34.20580 | 135.21257 | 10985 ft | 341 kts | 64° |
| 2026-04-25 18:23 | 34.21769 | 135.23636 | 10841 ft | 324 kts | 51° |
| 2026-04-25 18:24 | 34.23307 | 135.25554 | 10763 ft | 310 kts | 37° |
| 2026-04-25 18:24 | 34.25038 | 135.27039 | 10657 ft | 303 kts | 32° |
| 2026-04-25 18:24 | 34.26821 | 135.28467 | 10563 ft | 312 kts | 32° |
| 2026-04-25 18:24 | 34.28636 | 135.29914 | 10422 ft | 310 kts | 32° |
| 2026-04-25 18:25 | 34.30414 | 135.31340 | 10284 ft | 304 kts | 32° |
| 2026-04-25 18:25 | 34.32148 | 135.32742 | 10157 ft | 297 kts | 33° |
| 2026-04-25 18:25 | 34.33863 | 135.34134 | 9861 ft | 297 kts | 33° |
| 2026-04-25 18:25 | 34.35572 | 135.35526 | 9558 ft | 296 kts | 33° |
| 2026-04-25 18:26 | 34.37279 | 135.36919 | 9260 ft | 295 kts | 33° |
| 2026-04-25 18:26 | 34.38908 | 135.38250 | 8976 ft | 295 kts | 33° |
| 2026-04-25 18:26 | 34.40607 | 135.39638 | 8675 ft | 295 kts | 33° |
| 2026-04-25 18:26 | 34.42291 | 135.41016 | 8374 ft | 295 kts | 33° |
| 2026-04-25 18:27 | 34.43942 | 135.42486 | 8052 ft | 296 kts | 45° |
| 2026-04-25 18:27 | 34.45107 | 135.44532 | 7785 ft | 295 kts | 60° |
| 2026-04-25 18:27 | 34.45779 | 135.45995 | 7564 ft | 296 kts | 61° |
| 2026-04-25 18:27 | 34.47088 | 135.48897 | 7147 ft | 297 kts | 61° |
| 2026-04-25 18:28 | 34.47760 | 135.50385 | 6940 ft | 297 kts | 61° |
| 2026-04-25 18:28 | 34.48758 | 135.52580 | 6644 ft | 296 kts | 61° |
| 2026-04-25 18:28 | 34.49731 | 135.54709 | 6324 ft | 290 kts | 61° |
| 2026-04-25 18:29 | 34.51652 | 135.58895 | 5735 ft | 277 kts | 61° |
| 2026-04-25 18:29 | 34.52567 | 135.60887 | 5617 ft | 264 kts | 61° |
| 2026-04-25 18:30 | 34.55859 | 135.65282 | 5276 ft | 219 kts | 12° |
| 2026-04-25 18:30 | 34.57330 | 135.65465 | 5060 ft | 207 kts | 360° |
| 2026-04-25 18:30 | 34.58739 | 135.65470 | 4858 ft | 199 kts | 359° |
| 2026-04-25 18:30 | 34.60086 | 135.65285 | 4605 ft | 195 kts | 334° |
| 2026-04-25 18:31 | 34.61157 | 135.64283 | 4425 ft | 198 kts | 319° |
| 2026-04-25 18:31 | 34.62221 | 135.63250 | 4152 ft | 190 kts | 319° |
| 2026-04-25 18:31 | 34.63189 | 135.62223 | 3937 ft | 179 kts | 316° |
| 2026-04-25 18:31 | 34.64086 | 135.61178 | 3659 ft | 177 kts | 314° |
| 2026-04-25 18:32 | 34.64945 | 135.60145 | 3444 ft | 171 kts | 314° |
| 2026-04-25 18:32 | 34.65766 | 135.59147 | 3225 ft | 165 kts | 314° |
| 2026-04-25 18:32 | 34.66564 | 135.58173 | 3003 ft | 162 kts | 314° |
| 2026-04-25 18:32 | 34.67355 | 135.57209 | 2784 ft | 164 kts | 314° |
| 2026-04-25 18:33 | 34.68166 | 135.56220 | 2552 ft | 163 kts | 314° |
| 2026-04-25 18:33 | 34.68967 | 135.55243 | 2350 ft | 167 kts | 315° |
| 2026-04-25 18:33 | 34.69788 | 135.54242 | 2112 ft | 163 kts | 315° |
| 2026-04-25 18:33 | 34.70572 | 135.53287 | 1896 ft | 160 kts | 316° |
| 2026-04-25 18:34 | 34.71349 | 135.52340 | 1681 ft | 157 kts | 316° |
| 2026-04-25 18:34 | 34.72115 | 135.51407 | 1473 ft | 155 kts | 316° |
| 2026-04-25 18:34 | 34.72869 | 135.50488 | 1277 ft | 153 kts | 317° |
| 2026-04-25 18:34 | 34.73620 | 135.49572 | 1055 ft | 151 kts | 317° |
| 2026-04-25 18:35 | 34.74355 | 135.48677 | 874 ft | 151 kts | 317° |
| 2026-04-25 18:35 | 34.75088 | 135.47775 | 648 ft | 149 kts | 317° |
| 2026-04-25 18:35 | 34.75814 | 135.46885 | 393 ft | 147 kts | 318° |
| 2026-04-25 18:35 | 34.76544 | 135.46002 | 193 ft | 149 kts | 318° |
| 2026-04-25 18:36 | 34.77269 | 135.45126 | 72 ft | 139 kts | 317° |
| 2026-04-25 18:36 | 34.77871 | 135.44387 | 49 ft | 99 kts | 322° |
| 2026-04-25 18:36 | 34.78069 | 135.44163 | 49 ft | 17 kts | 315° |
| 2026-04-25 18:36 | 34.78149 | 135.44081 | 51 ft | 9 kts | 323° |
| 2026-04-25 18:37 | 34.78207 | 135.44042 | 51 ft | 10 kts | 338° |
| 2026-04-25 18:37 | 34.78271 | 135.44011 | 48 ft | 11 kts | 341° |
| 2026-04-25 18:37 | 34.78370 | 135.43996 | 49 ft | 18 kts | 4° |
| 2026-04-25 18:37 | 34.78505 | 135.44062 | 50 ft | 24 kts | 38° |
| 2026-04-25 18:38 | 34.78631 | 135.44208 | 46 ft | 19 kts | 29° |
| 2026-04-25 18:38 | 34.78732 | 135.44138 | 46 ft | 17 kts | 316° |
| 2026-04-25 18:38 | 34.78816 | 135.44038 | 46 ft | 17 kts | 315° |
| 2026-04-25 18:38 | 34.78898 | 135.43939 | 48 ft | 16 kts | 315° |
| 2026-04-25 18:39 | 34.78976 | 135.43844 | 47 ft | 15 kts | 315° |
| 2026-04-25 18:39 | 34.79047 | 135.43765 | 49 ft | 11 kts | 339° |
| 2026-04-25 18:39 | 34.79096 | 135.43793 | 49 ft | 7 kts | 30° |
| 2026-04-25 18:39 | 34.79133 | 135.43819 | 45 ft | 5 kts | 30° |
| 2026-04-25 18:40 | 34.79147 | 135.43829 | 46 ft | 0 kts | 30° |
| 2026-04-25 18:40 | 34.79150 | 135.43831 | 46 ft | 1 kts | 30° |
| 2026-04-25 18:40 | 34.79179 | 135.43852 | 49 ft | 8 kts | 30° |
| 2026-04-25 18:40 | 34.79186 | 135.43857 | 49 ft | 0 kts | 30° |